CCR6 weather

Creemore Airport
Creemore, Ontario, Canada

Public forecast

Using degrees Celsius for public forecast. Weather courtesy of forecast.io.

Closest aviation weather report (METAR) to Creemore Airport

Closest report is CFB Borden, 10.5 nm (19.5 km) ESE. Retrieved 2019/10/16 08:00 UTC (52 minutes ago):

CYBN 160800Z AUTO 15003KT 9SM FEW088 08/06 A2961 RMK PRESFR SLP029

Closest aviation forecast (TAF) to Creemore Airport

Forecast is more than 6 hours old.

Closest forecast is CFB Borden, 10.5 nm (19.5 km) ESE. Retrieved 2019-10-16 00:33 UTC (8 hours ago):

TAF TAF CYBN 152330Z 1600/1612 12008KT P6SM FEW040 BKN120 TEMPO 1602/1605 P6SM -SHRA BKN040 OVC120 FM160500 14008KT P6SM BKN070 OVC120 FM160900 14008KT P6SM -SHRA OVC040 FM161100 12008G18KT 5SM -RA BR SCT008 BKN012 OVC025 RMK FCST BASED ON AUTO OBS NXT FCST BY 160600Z